Montgomery Regional (Dannelly Field) Airport
KMGM : now visible

Airfield :











YOU CAN JOIN US ON...

 
LOGIN :

Register | Disclaimer

   EN    FR    IT 

 









Legend :    VFR   Marginal VFR   IFR   Intensive IFR   Very Intensive IFR
Visi :
Ceiling :
>= 8 km
>= 3000ft
5 to 8 km
1000 to 3000 ft
1500m to 5 km
500 to 1000 ft
800 to 1500m
200 to 500 ft
< 800m
< 200 ft
Symbols :   Thunderstorms  Fog  Heavy snow  Heavy precipitations  Wind > 20 kt






- Airport Elevation : 221 ft
- IATA code : MGM


KMGM - Montgomery Regional (Dannelly Field)

CURRENT METAR :
  • 071953Z 01007KT 10SM -RA OVC110 24/18 A3002 RMK AO2 RAB43 SLP164 P0000 T02440178

EXPIRED METARs :
  • 071853Z 02006KT 10SM SCT047 OVC110 26/17 A3005 RMK AO2 SLP172 T02560172
  • 071753Z VRB04KT 10SM BKN110 27/17 A3005 RMK AO2 SLP173 60000 T02670172 10267 20183 58017

TAF KMGM
Valid from the 07 at 18:00 until the 08 at 18:00 UTC


071741Z 0718/0818 VRB04KT P6SM BKN120
FM071900 VRB04KT P6SM VCSH SCT025 BKN050
FM080000 VRB04KT P6SM VCSH SCT012 BKN030
FM080500 16005KT P6SM SCT008 BKN012
PROB30 0805/0809 4SM -SHRA BR OVC008
FM080900 22006KT P6SM OVC006
PROB30 0809/0815 2SM -SHRA BR OVC004
FM081600 25007KT P6SM BKN012



MET'MAP, your aeronautical weather chart ! - Copyright ORBIFLY December 2007 - Disclaimer

ORBIFLY MET'MAP TEAM :

Programming & Development : Alexandra Zaïnal
Concept & original design : Baudouin d'Aumeries
Assistance for programming : Marc-Olivier Méhu
Technical & hardware support : Manuel Goepfert

Contact : metmap@orbifly.com




SOURCES & CREDITS :

   NOAA       Earth
Advisory